createdAt,value
2022-10-30T00:01:55.037Z,11.12
2022-10-30T00:06:58.002Z,11.09
2022-10-30T00:12:01.344Z,11.06
2022-10-30T00:17:05.650Z,10.90
2022-10-30T00:27:10.370Z,10.73
2022-10-30T00:32:14.643Z,10.81
2022-10-30T00:37:19.429Z,10.82
2022-10-30T00:42:22.440Z,10.88
2022-10-30T00:47:31.493Z,10.87
2022-10-30T00:52:38.666Z,10.91
2022-10-30T00:57:42.912Z,10.87
2022-10-30T01:02:47.393Z,10.72
2022-10-30T01:07:50.364Z,10.66
2022-10-30T01:12:56.665Z,10.57
2022-10-30T01:18:19.014Z,10.48
2022-10-30T01:23:35.135Z,10.52
2022-10-30T01:28:52.213Z,10.45
2022-10-30T01:34:05.728Z,10.42
2022-10-30T01:39:15.020Z,10.30
2022-10-30T01:44:21.390Z,10.21
2022-10-30T01:49:48.701Z,10.16
2022-10-30T01:55:00.139Z,10.06
2022-10-30T02:00:06.297Z,10.06
2022-10-30T02:05:37.345Z,10.09
2022-10-30T02:10:41.082Z,10.04
2022-10-30T02:15:46.343Z,9.88
2022-10-30T02:20:50.637Z,9.94
2022-10-30T02:25:53.748Z,9.91
2022-10-30T02:30:56.813Z,9.92
2022-10-30T02:36:02.161Z,9.88
2022-10-30T02:41:05.185Z,9.82
2022-10-30T02:46:08.281Z,9.81
2022-10-30T02:51:12.944Z,9.80
2022-10-30T02:56:16.922Z,9.89
2022-10-30T03:01:20.943Z,9.88
2022-10-30T03:06:26.161Z,9.91
2022-10-30T03:11:29.124Z,9.94
2022-10-30T03:16:33.617Z,9.88
2022-10-30T03:21:37.956Z,9.89
2022-10-30T03:26:40.912Z,9.97
2022-10-30T03:31:45.126Z,9.95
2022-10-30T03:37:11.782Z,9.97
2022-10-30T03:42:15.363Z,9.91
2022-10-30T03:47:19.204Z,9.81
2022-10-30T03:52:23.878Z,9.86
2022-10-30T03:57:28.079Z,9.88
2022-10-30T04:02:48.502Z,9.64
2022-10-30T04:07:58.766Z,9.38
2022-10-30T04:13:03.124Z,9.66
2022-10-30T04:18:07.156Z,9.82
2022-10-30T04:23:15.544Z,9.82
2022-10-30T04:28:18.684Z,9.80
2022-10-30T04:33:22.850Z,9.85
2022-10-30T04:38:28.040Z,9.79
2022-10-30T04:43:32.815Z,9.71
2022-10-30T04:48:37.233Z,9.52
2022-10-30T04:53:42.368Z,9.50
2022-10-30T04:58:48.634Z,9.46
2022-10-30T05:03:54.623Z,9.45
2022-10-30T05:08:59.623Z,9.46
2022-10-30T05:14:12.434Z,9.45
2022-10-30T05:19:15.366Z,9.44
2022-10-30T05:24:27.701Z,9.40
2022-10-30T05:29:30.977Z,9.31
2022-10-30T05:34:34.384Z,9.35
2022-10-30T05:39:38.748Z,9.32
2022-10-30T05:45:01.030Z,9.31
2022-10-30T05:50:07.530Z,9.39
2022-10-30T05:55:14.586Z,9.45
2022-10-30T06:00:28.328Z,9.34
2022-10-30T06:05:33.262Z,9.21
2022-10-30T06:10:39.235Z,9.38
2022-10-30T06:15:56.258Z,9.47
2022-10-30T06:21:01.014Z,9.63
2022-10-30T06:26:25.665Z,9.67
2022-10-30T06:31:31.775Z,9.77
2022-10-30T06:36:36.686Z,9.72
2022-10-30T06:41:41.962Z,9.75
2022-10-30T06:46:57.135Z,10.05
2022-10-30T06:52:00.124Z,10.22
2022-10-30T06:57:04.529Z,10.47
2022-10-30T07:02:26.272Z,10.58
2022-10-30T07:07:36.119Z,10.62
2022-10-30T07:12:40.680Z,10.84
2022-10-30T07:17:57.418Z,10.99
2022-10-30T07:23:01.712Z,10.85
2022-10-30T07:28:06.493Z,11.05
2022-10-30T07:33:17.471Z,11.20
2022-10-30T07:38:40.054Z,11.30
2022-10-30T07:43:59.071Z,11.55
2022-10-30T07:49:19.843Z,12.28
2022-10-30T07:54:29.511Z,11.60
2022-10-30T07:59:39.051Z,12.11
2022-10-30T08:05:17.016Z,12.10
2022-10-30T08:10:40.965Z,12.24
2022-10-30T08:15:45.680Z,12.44
2022-10-30T08:20:50.706Z,13.25
2022-10-30T08:26:00.291Z,13.22
2022-10-30T08:31:06.159Z,13.47
2022-10-30T08:36:27.856Z,13.59
2022-10-30T08:41:31.134Z,14.14
2022-10-30T08:46:35.560Z,14.59
2022-10-30T08:51:38.529Z,14.89
2022-10-30T08:56:42.080Z,14.09
2022-10-30T09:01:51.115Z,14.94
2022-10-30T09:06:57.147Z,15.43
2022-10-30T09:12:37.928Z,15.16
2022-10-30T09:17:42.607Z,14.74
2022-10-30T09:22:45.544Z,15.07
2022-10-30T09:27:48.518Z,14.69
2022-10-30T09:32:59.008Z,14.54
2022-10-30T09:38:21.993Z,14.65
2022-10-30T09:43:37.551Z,14.90
2022-10-30T09:48:54.714Z,15.07
2022-10-30T09:54:12.399Z,15.09
2022-10-30T09:59:36.356Z,15.18
2022-10-30T10:04:45.277Z,15.94
2022-10-30T10:09:50.598Z,16.55
2022-10-30T10:15:24.974Z,17.07
2022-10-30T10:20:33.430Z,17.67
2022-10-30T10:25:39.299Z,18.11
2022-10-30T10:30:51.370Z,18.29
2022-10-30T10:36:07.285Z,18.23
2022-10-30T10:41:19.789Z,18.06
2022-10-30T10:46:35.896Z,18.54
2022-10-30T10:51:43.169Z,18.62
2022-10-30T10:56:49.543Z,18.81
2022-10-30T11:02:01.573Z,18.66
2022-10-30T11:07:18.318Z,18.42
2022-10-30T11:12:28.544Z,18.68
2022-10-30T11:17:43.353Z,19.17
2022-10-30T11:22:51.581Z,19.46
2022-10-30T11:27:56.829Z,19.59
2022-10-30T11:33:00.730Z,19.63
2022-10-30T11:38:20.744Z,19.70
2022-10-30T11:43:25.553Z,19.88
2022-10-30T11:48:31.707Z,19.92
2022-10-30T11:53:40.149Z,19.94
2022-10-30T11:58:47.090Z,19.93
2022-10-30T12:03:50.334Z,19.94
2022-10-30T12:09:03.234Z,20.14
2022-10-30T12:14:06.964Z,20.07
2022-10-30T12:19:15.428Z,20.31
2022-10-30T12:24:22.697Z,20.24
2022-10-30T12:30:02.728Z,20.17
2022-10-30T12:35:03.540Z,20.30
2022-10-30T12:40:14.215Z,20.27
2022-10-30T12:45:21.910Z,20.27
2022-10-30T12:50:28.429Z,20.16
2022-10-30T12:55:37.770Z,20.20
2022-10-30T13:00:47.141Z,20.24
2022-10-30T13:05:54.844Z,19.93
2022-10-30T13:11:05.242Z,19.80
2022-10-30T13:16:14.126Z,19.94
2022-10-30T13:21:24.768Z,19.87
2022-10-30T13:26:37.290Z,19.84
2022-10-30T13:31:52.469Z,19.56
2022-10-30T13:37:03.408Z,19.53
2022-10-30T13:42:31.253Z,19.29
2022-10-30T13:47:44.227Z,19.36
2022-10-30T13:52:56.385Z,19.22
2022-10-30T13:58:06.771Z,19.02
2022-10-30T14:03:24.067Z,18.97
2022-10-30T14:08:36.670Z,18.67
2022-10-30T14:13:54.171Z,18.42
2022-10-30T14:19:01.733Z,18.24
2022-10-30T14:24:11.371Z,18.09
2022-10-30T14:29:42.841Z,17.93
2022-10-30T14:34:47.875Z,17.73
2022-10-30T14:39:52.210Z,17.43
2022-10-30T14:45:10.813Z,17.40
2022-10-30T14:50:23.464Z,17.30
2022-10-30T14:55:32.036Z,16.98
2022-10-30T15:00:43.908Z,16.98
2022-10-30T15:05:53.693Z,16.72
2022-10-30T15:11:14.052Z,16.68
2022-10-30T15:16:23.941Z,16.53
2022-10-30T15:21:29.741Z,16.36
2022-10-30T15:26:36.871Z,16.20
2022-10-30T15:31:41.147Z,16.01
2022-10-30T15:36:44.079Z,15.82
2022-10-30T15:41:49.851Z,15.41
2022-10-30T15:46:56.476Z,15.46
2022-10-30T15:52:00.815Z,15.30
2022-10-30T15:57:49.413Z,15.27
2022-10-30T16:02:28.412Z,15.12
2022-10-30T16:07:32.385Z,15.01
2022-10-30T16:12:36.297Z,14.91
2022-10-30T16:17:40.670Z,14.81
2022-10-30T16:22:43.825Z,14.53
2022-10-30T16:27:47.283Z,14.52
2022-10-30T16:32:54.677Z,14.29
2022-10-30T16:37:58.236Z,14.32
2022-10-30T16:43:03.383Z,14.12
2022-10-30T16:53:23.351Z,13.89
2022-10-30T16:58:30.280Z,13.83
2022-10-30T17:03:38.224Z,13.68
2022-10-30T17:08:43.885Z,13.65
2022-10-30T17:13:59.002Z,13.59
2022-10-30T17:19:39.702Z,13.38
2022-10-30T17:24:42.900Z,13.37
2022-10-30T17:29:46.316Z,13.30
2022-10-30T17:35:00.527Z,13.19
2022-10-30T17:40:03.789Z,13.09
2022-10-30T17:45:10.395Z,13.06
2022-10-30T17:50:14.739Z,13.00
2022-10-30T17:55:26.522Z,12.93
2022-10-30T18:00:29.443Z,12.78
2022-10-30T18:05:36.191Z,12.76
2022-10-30T18:10:39.183Z,12.61
2022-10-30T18:15:45.254Z,12.55
2022-10-30T18:20:49.514Z,12.49
2022-10-30T18:25:52.674Z,12.40
2022-10-30T18:30:58.518Z,12.30
2022-10-30T18:36:02.802Z,12.15
2022-10-30T18:41:06.161Z,12.17
2022-10-30T18:46:11.442Z,12.08
2022-10-30T18:51:19.154Z,12.06
2022-10-30T18:56:26.683Z,11.90
2022-10-30T19:01:30.820Z,11.87
2022-10-30T19:06:37.588Z,11.75
2022-10-30T19:11:44.168Z,11.74
2022-10-30T19:16:47.561Z,11.69
2022-10-30T19:21:52.953Z,11.52
2022-10-30T19:26:56.062Z,11.48
2022-10-30T19:31:58.944Z,11.40
2022-10-30T19:37:03.227Z,11.20
2022-10-30T19:42:06.167Z,11.28
2022-10-30T19:47:10.192Z,11.19
2022-10-30T19:52:16.080Z,11.13
2022-10-30T19:57:19.295Z,11.03
2022-10-30T20:02:22.600Z,11.02
2022-10-30T20:07:27.025Z,10.87
2022-10-30T20:12:29.945Z,10.88
2022-10-30T20:17:32.867Z,10.87
2022-10-30T20:22:37.207Z,10.79
2022-10-30T20:27:41.232Z,10.64
2022-10-30T20:32:44.241Z,10.65
2022-10-30T20:38:01.501Z,10.58
2022-10-30T20:43:04.440Z,10.56
2022-10-30T20:48:07.461Z,10.54
2022-10-30T20:53:14.521Z,10.41
2022-10-30T20:58:17.951Z,10.30
2022-10-30T21:03:20.834Z,10.18
2022-10-30T21:08:25.206Z,10.04
2022-10-30T21:13:28.619Z,9.98
2022-10-30T21:18:32.478Z,10.04
2022-10-30T21:23:36.829Z,9.85
2022-10-30T21:28:40.222Z,9.93
2022-10-30T21:33:43.322Z,9.72
2022-10-30T21:38:48.092Z,9.77
2022-10-30T21:43:52.274Z,9.80
2022-10-30T21:48:55.498Z,9.68
2022-10-30T21:54:00.013Z,9.87
2022-10-30T21:59:04.738Z,10.34
2022-10-30T22:04:09.657Z,10.87
2022-10-30T22:09:16.691Z,12.18
2022-10-30T22:14:19.581Z,12.60
2022-10-30T22:19:22.497Z,13.04
2022-10-30T22:24:26.827Z,13.02
2022-10-30T22:29:29.725Z,11.88
2022-10-30T22:34:32.715Z,10.64
2022-10-30T22:39:36.993Z,10.64
2022-10-30T22:44:39.931Z,10.64
2022-10-30T22:49:42.811Z,10.84
2022-10-30T22:54:47.079Z,11.34
2022-10-30T22:59:49.949Z,12.00
2022-10-30T23:04:52.902Z,12.39
2022-10-30T23:09:57.149Z,12.95
2022-10-30T23:15:00.015Z,13.35
2022-10-30T23:20:02.946Z,13.33
2022-10-30T23:25:07.662Z,13.00
2022-10-30T23:30:12.010Z,12.69
2022-10-30T23:35:15.011Z,13.17
2022-10-30T23:40:19.289Z,13.45
2022-10-30T23:45:22.841Z,13.60
2022-10-30T23:50:25.827Z,13.65
2022-10-30T23:55:30.119Z,12.30
